createdAt,value
2023-04-15T00:00:05.181Z,89.00
2023-04-15T00:02:18.563Z,88.00
2023-04-15T00:04:22.418Z,88.50
2023-04-15T00:06:26.518Z,88.30
2023-04-15T00:08:30.433Z,88.50
2023-04-15T00:10:35.254Z,88.30
2023-04-15T00:12:38.855Z,88.00
2023-04-15T00:14:42.845Z,88.70
2023-04-15T00:16:46.259Z,88.50
2023-04-15T00:18:49.991Z,88.10
2023-04-15T00:20:53.875Z,87.90
2023-04-15T00:22:58.195Z,88.10
2023-04-15T00:25:02.387Z,88.30
2023-04-15T00:27:07.641Z,88.20
2023-04-15T00:29:10.907Z,87.70
2023-04-15T00:31:14.516Z,87.70
2023-04-15T00:33:17.854Z,87.90
2023-04-15T00:35:21.832Z,88.10
2023-04-15T00:37:25.338Z,87.90
2023-04-15T00:39:29.747Z,87.60
2023-04-15T00:41:34.220Z,88.10
2023-04-15T00:43:39.657Z,87.80
2023-04-15T00:45:43.567Z,88.10
2023-04-15T00:47:47.302Z,88.30
2023-04-15T00:49:50.839Z,89.30
2023-04-15T00:51:54.568Z,89.40
2023-04-15T00:53:58.440Z,88.50
2023-04-15T00:56:02.174Z,88.10
2023-04-15T00:58:05.990Z,87.70
2023-04-15T01:00:12.669Z,87.60
2023-04-15T01:02:16.691Z,88.00
2023-04-15T01:04:20.423Z,88.00
2023-04-15T01:06:24.374Z,88.00
2023-04-15T01:08:29.705Z,87.80
2023-04-15T01:10:33.640Z,87.30
2023-04-15T01:12:37.934Z,87.90
2023-04-15T01:14:41.451Z,88.10
2023-04-15T01:16:46.980Z,88.20
2023-04-15T01:18:50.743Z,88.80
2023-04-15T01:20:54.664Z,88.70
2023-04-15T01:22:59.265Z,88.40
2023-04-15T01:25:08.398Z,88.40
2023-04-15T01:27:13.908Z,88.40
2023-04-15T01:29:17.405Z,88.10
2023-04-15T01:31:20.995Z,87.80
2023-04-15T01:33:24.578Z,87.70
2023-04-15T01:35:28.385Z,87.70
2023-04-15T01:37:32.440Z,87.70
2023-04-15T01:39:36.158Z,87.90
2023-04-15T01:41:39.527Z,87.80
2023-04-15T01:43:44.761Z,88.10
2023-04-15T01:45:48.198Z,88.00
2023-04-15T01:47:51.828Z,88.10
2023-04-15T01:49:56.272Z,88.00
2023-04-15T01:51:59.928Z,87.40
2023-04-15T01:54:03.427Z,87.20
2023-04-15T01:56:07.379Z,87.60
2023-04-15T01:58:10.764Z,87.70
2023-04-15T02:00:16.714Z,87.70
2023-04-15T02:02:20.743Z,87.70
2023-04-15T02:04:24.670Z,87.90
2023-04-15T02:06:29.368Z,87.90
2023-04-15T02:08:33.875Z,87.70
2023-04-15T02:10:37.469Z,88.10
2023-04-15T02:12:41.023Z,88.50
2023-04-15T02:14:44.657Z,88.80
2023-04-15T02:16:49.619Z,88.80
2023-04-15T02:18:53.734Z,88.80
2023-04-15T02:20:59.593Z,88.20
2023-04-15T02:23:07.676Z,88.10
2023-04-15T02:25:13.266Z,88.00
2023-04-15T02:27:23.790Z,88.00
2023-04-15T02:29:29.257Z,89.30
2023-04-15T02:31:38.778Z,89.10
2023-04-15T02:33:45.377Z,88.70
2023-04-15T02:35:51.997Z,88.40
2023-04-15T02:37:58.248Z,88.30
2023-04-15T02:40:04.126Z,88.70
2023-04-15T02:42:17.615Z,89.10
2023-04-15T02:44:22.950Z,89.60
2023-04-15T02:46:27.635Z,89.30
2023-04-15T02:48:31.531Z,89.10
2023-04-15T02:50:37.937Z,89.70
2023-04-15T02:52:41.770Z,88.30
2023-04-15T02:54:45.858Z,88.50
2023-04-15T02:56:50.052Z,88.70
2023-04-15T02:58:56.285Z,88.90
2023-04-15T03:00:59.613Z,89.20
2023-04-15T03:03:05.455Z,89.00
2023-04-15T03:05:13.145Z,89.20
2023-04-15T03:07:19.417Z,89.10
2023-04-15T03:09:23.540Z,89.00
2023-04-15T03:11:27.546Z,89.20
2023-04-15T03:13:30.829Z,89.20
2023-04-15T03:15:34.744Z,88.90
2023-04-15T03:17:38.246Z,88.10
2023-04-15T03:19:41.740Z,88.10
2023-04-15T03:21:45.093Z,88.90
2023-04-15T03:23:50.532Z,88.80
2023-04-15T03:25:56.082Z,88.60
2023-04-15T03:27:59.573Z,88.50
2023-04-15T03:30:03.443Z,88.50
2023-04-15T03:32:07.285Z,89.00
2023-04-15T03:34:11.192Z,89.00
2023-04-15T03:36:15.212Z,88.60
2023-04-15T03:38:18.688Z,88.50
2023-04-15T03:40:25.032Z,87.90
2023-04-15T03:42:28.863Z,88.00
2023-04-15T03:44:32.969Z,87.90
2023-04-15T03:46:36.711Z,88.20
2023-04-15T03:48:40.445Z,88.50
2023-04-15T03:50:44.471Z,88.30
2023-04-15T03:52:49.196Z,88.70
2023-04-15T03:54:54.724Z,88.50
2023-04-15T03:56:59.567Z,88.20
2023-04-15T03:59:03.448Z,88.60
2023-04-15T04:01:07.044Z,88.90
2023-04-15T04:03:10.550Z,88.70
2023-04-15T04:05:14.291Z,88.50
2023-04-15T04:07:18.220Z,88.70
2023-04-15T04:09:22.972Z,88.50
2023-04-15T04:11:26.590Z,88.70
2023-04-15T04:13:31.543Z,89.20
2023-04-15T04:15:35.460Z,89.00
2023-04-15T04:17:38.832Z,88.80
2023-04-15T04:19:42.279Z,88.70
2023-04-15T04:21:45.808Z,88.80
2023-04-15T04:23:49.504Z,88.50
2023-04-15T04:25:53.689Z,89.20
2023-04-15T04:27:57.097Z,89.80
2023-04-15T04:30:02.253Z,89.50
2023-04-15T04:32:06.080Z,89.40
2023-04-15T04:34:09.920Z,89.30
2023-04-15T04:36:13.344Z,89.00
2023-04-15T04:38:16.872Z,89.20
2023-04-15T04:40:20.837Z,88.70
2023-04-15T04:42:24.332Z,88.60
2023-04-15T04:44:27.827Z,88.50
2023-04-15T04:46:33.169Z,88.70
2023-04-15T04:48:37.040Z,88.20
2023-04-15T04:50:40.466Z,87.50
2023-04-15T04:52:43.997Z,87.30
2023-04-15T04:54:47.425Z,87.00
2023-04-15T04:56:51.049Z,86.90
2023-04-15T04:58:54.473Z,87.90
2023-04-15T05:00:58.562Z,89.20
2023-04-15T05:03:04.147Z,89.50
2023-04-15T05:05:08.759Z,88.90
2023-04-15T05:07:12.323Z,88.40
2023-04-15T05:09:15.657Z,87.50
2023-04-15T05:11:19.196Z,87.00
2023-04-15T05:13:22.903Z,87.20
2023-04-15T05:15:27.024Z,87.30
2023-04-15T05:17:33.548Z,87.50
2023-04-15T05:19:38.479Z,87.50
2023-04-15T05:21:42.312Z,87.30
2023-04-15T05:23:45.905Z,86.70
2023-04-15T05:25:49.292Z,87.10
2023-04-15T05:27:53.270Z,87.50
2023-04-15T05:29:56.885Z,87.70
2023-04-15T05:32:00.604Z,87.60
2023-04-15T05:34:05.519Z,87.30
2023-04-15T05:36:10.866Z,87.40
2023-04-15T05:38:14.160Z,87.20
2023-04-15T05:40:17.893Z,86.50
2023-04-15T05:42:21.656Z,86.20
2023-04-15T05:44:25.736Z,86.40
2023-04-15T05:46:29.204Z,86.90
2023-04-15T05:48:32.529Z,87.00
2023-04-15T05:50:35.912Z,86.30
2023-04-15T05:52:40.950Z,85.90
2023-04-15T05:54:44.267Z,86.10
2023-04-15T05:56:47.561Z,85.70
2023-04-15T05:58:53.696Z,85.70
2023-04-15T06:00:57.190Z,86.00
2023-04-15T06:03:01.072Z,86.80
2023-04-15T06:05:05.374Z,85.50
2023-04-15T06:07:09.097Z,85.60
2023-04-15T06:09:14.041Z,84.70
2023-04-15T06:11:17.527Z,84.40
2023-04-15T06:13:20.845Z,84.00
2023-04-15T06:15:24.338Z,83.90
2023-04-15T06:17:27.960Z,84.00
2023-04-15T06:19:31.991Z,84.50
2023-04-15T06:21:35.616Z,84.40
2023-04-15T06:23:41.264Z,84.40
2023-04-15T06:25:46.331Z,83.80
2023-04-15T06:27:50.189Z,83.50
2023-04-15T06:29:53.998Z,82.40
2023-04-15T06:31:57.643Z,81.80
2023-04-15T06:34:01.129Z,81.80
2023-04-15T06:36:04.608Z,81.70
2023-04-15T06:38:07.977Z,81.40
2023-04-15T06:40:12.631Z,80.70
2023-04-15T06:42:17.423Z,80.00
2023-04-15T06:44:20.742Z,80.90
2023-04-15T06:46:24.260Z,80.10
2023-04-15T06:48:27.836Z,79.90
2023-04-15T06:50:31.421Z,79.60
2023-04-15T06:52:35.231Z,79.40
2023-04-15T06:54:38.550Z,79.70
2023-04-15T06:56:42.084Z,79.50
2023-04-15T06:58:47.249Z,79.50
2023-04-15T07:00:50.662Z,79.20
2023-04-15T07:02:55.414Z,78.60
2023-04-15T07:04:58.708Z,78.90
2023-04-15T07:07:02.654Z,79.00
2023-04-15T07:09:06.205Z,79.10
2023-04-15T07:11:09.557Z,78.60
2023-04-15T07:13:12.838Z,79.50
2023-04-15T07:15:17.835Z,78.60
2023-04-15T07:17:21.626Z,79.00
2023-04-15T07:19:25.166Z,80.10
2023-04-15T07:21:29.633Z,80.00
2023-04-15T07:23:32.942Z,79.30
2023-04-15T07:25:36.472Z,80.60
2023-04-15T07:27:39.860Z,80.10
2023-04-15T07:29:43.222Z,80.30
2023-04-15T07:31:47.823Z,79.70
2023-04-15T07:33:51.188Z,79.90
2023-04-15T07:35:54.387Z,80.00
2023-04-15T07:37:58.192Z,79.30
2023-04-15T07:40:01.479Z,79.30
2023-04-15T07:42:05.661Z,78.50
2023-04-15T07:44:09.279Z,78.80
2023-04-15T07:46:12.709Z,81.10
2023-04-15T07:48:17.353Z,80.60
2023-04-15T07:50:20.698Z,80.10
2023-04-15T07:52:24.062Z,80.10
2023-04-15T07:54:27.584Z,79.80
2023-04-15T07:56:31.215Z,79.50
2023-04-15T07:58:34.536Z,79.60
2023-04-15T08:00:38.703Z,79.90
2023-04-15T08:02:42.983Z,78.10
2023-04-15T08:04:48.159Z,78.20
2023-04-15T08:06:52.713Z,78.40
2023-04-15T08:08:56.311Z,77.30
2023-04-15T08:11:00.118Z,79.50
2023-04-15T08:13:03.860Z,80.10
2023-04-15T08:15:09.231Z,78.60
2023-04-15T08:17:12.758Z,77.80
2023-04-15T08:19:16.070Z,77.30
2023-04-15T08:21:21.447Z,76.30
2023-04-15T08:23:24.944Z,76.40
2023-04-15T08:25:29.513Z,73.60
2023-04-15T08:27:32.852Z,74.90
2023-04-15T08:29:36.361Z,75.50
2023-04-15T08:31:40.351Z,76.90
2023-04-15T08:33:43.992Z,77.10
2023-04-15T08:35:47.792Z,78.50
2023-04-15T08:37:52.703Z,76.20
2023-04-15T08:39:56.345Z,78.00
2023-04-15T08:42:03.885Z,74.60
2023-04-15T08:44:07.730Z,72.70
2023-04-15T08:46:12.092Z,73.40
2023-04-15T08:48:17.794Z,73.80
2023-04-15T08:50:22.299Z,72.00
2023-04-15T08:52:27.239Z,72.40
2023-04-15T08:54:32.349Z,72.60
2023-04-15T08:56:37.290Z,70.60
2023-04-15T08:58:40.773Z,70.30
2023-04-15T09:00:44.304Z,72.40
2023-04-15T09:02:48.169Z,72.50
2023-04-15T09:04:51.483Z,71.70
2023-04-15T09:06:55.697Z,70.40
2023-04-15T09:08:58.888Z,69.40
2023-04-15T09:11:04.206Z,71.00
2023-04-15T09:13:07.713Z,71.90
2023-04-15T09:15:13.926Z,72.00
2023-04-15T09:17:21.191Z,72.00
2023-04-15T09:19:25.530Z,70.00
2023-04-15T09:21:29.584Z,71.00
2023-04-15T09:23:34.004Z,70.90
2023-04-15T09:25:37.293Z,68.50
2023-04-15T09:27:49.828Z,67.30
2023-04-15T09:29:55.036Z,67.10
2023-04-15T09:31:58.229Z,69.20
2023-04-15T09:34:01.865Z,67.50
2023-04-15T09:36:07.036Z,67.10
2023-04-15T09:38:11.361Z,68.20
2023-04-15T09:40:15.353Z,70.60
2023-04-15T09:42:24.452Z,69.70
2023-04-15T09:44:29.541Z,69.10
2023-04-15T09:46:46.390Z,66.20
2023-04-15T09:49:09.470Z,66.00
2023-04-15T09:51:12.982Z,67.00
2023-04-15T09:53:20.680Z,66.80
2023-04-15T09:55:24.321Z,67.80
2023-04-15T09:57:36.744Z,66.50
2023-04-15T09:59:41.604Z,66.60
2023-04-15T10:01:46.513Z,66.70
2023-04-15T10:03:50.329Z,69.50
2023-04-15T10:05:57.205Z,69.00
2023-04-15T10:08:01.166Z,63.00
2023-04-15T10:10:06.026Z,65.60
2023-04-15T10:12:10.101Z,65.70
2023-04-15T10:14:17.661Z,65.20
2023-04-15T10:16:23.102Z,63.60
2023-04-15T10:18:29.339Z,63.70
2023-04-15T10:20:32.922Z,64.70
2023-04-15T10:22:37.595Z,65.60
2023-04-15T10:24:41.413Z,63.80
2023-04-15T10:26:46.144Z,63.00
2023-04-15T10:28:49.467Z,61.80
2023-04-15T10:30:53.695Z,60.30
2023-04-15T10:32:59.147Z,61.00
2023-04-15T10:35:04.361Z,60.20
2023-04-15T10:37:11.472Z,62.50
2023-04-15T10:39:40.649Z,63.80
2023-04-15T10:41:44.214Z,65.20
2023-04-15T10:43:50.277Z,64.60
2023-04-15T10:45:55.355Z,61.50
2023-04-15T10:48:03.808Z,63.30
2023-04-15T10:50:08.411Z,61.00
2023-04-15T10:52:11.933Z,61.40
2023-04-15T10:54:17.596Z,60.70
2023-04-15T10:56:21.791Z,62.80
2023-04-15T10:58:26.074Z,61.90
2023-04-15T11:00:31.239Z,62.80
2023-04-15T11:02:46.575Z,62.20
2023-04-15T11:04:56.178Z,62.40
2023-04-15T11:07:07.626Z,62.10
2023-04-15T11:09:34.484Z,62.40
2023-04-15T11:12:08.891Z,63.50
2023-04-15T11:14:16.933Z,64.90
2023-04-15T11:16:20.716Z,63.30
2023-04-15T11:18:25.747Z,65.20
2023-04-15T11:20:31.165Z,67.30
2023-04-15T11:22:34.656Z,67.70
2023-04-15T11:24:38.380Z,65.50
2023-04-15T11:26:41.948Z,65.70
2023-04-15T11:28:46.882Z,64.50
2023-04-15T11:30:50.681Z,65.20
2023-04-15T11:32:56.339Z,66.10
2023-04-15T11:34:59.618Z,63.40
2023-04-15T11:37:08.031Z,65.10
2023-04-15T11:39:11.419Z,65.90
2023-04-15T11:41:14.828Z,63.40
2023-04-15T11:43:20.977Z,65.40
2023-04-15T11:45:24.388Z,63.80
2023-04-15T11:47:27.690Z,65.00
2023-04-15T11:49:33.973Z,64.10
2023-04-15T11:51:37.694Z,64.70
2023-04-15T11:53:43.674Z,65.10
2023-04-15T11:55:48.571Z,64.30
2023-04-15T11:57:52.582Z,65.60
2023-04-15T11:59:57.216Z,65.20
2023-04-15T12:02:00.868Z,64.80
2023-04-15T12:04:12.109Z,62.80
2023-04-15T12:06:19.259Z,63.10
2023-04-15T12:08:22.829Z,62.80
2023-04-15T12:10:29.130Z,63.50
2023-04-15T12:12:32.612Z,62.50
2023-04-15T12:14:36.754Z,64.40
2023-04-15T12:16:48.788Z,64.10
2023-04-15T12:18:53.553Z,64.40
2023-04-15T12:20:56.981Z,64.50
2023-04-15T12:23:07.541Z,65.70
2023-04-15T12:25:11.105Z,65.30
2023-04-15T12:27:18.710Z,65.40
2023-04-15T12:29:26.287Z,65.50
2023-04-15T12:31:30.027Z,66.20
2023-04-15T12:33:35.127Z,66.10
2023-04-15T12:35:38.416Z,65.30
2023-04-15T12:37:41.994Z,65.10
2023-04-15T12:39:51.183Z,63.20
2023-04-15T12:41:55.022Z,63.30
2023-04-15T12:44:00.012Z,63.90
2023-04-15T12:46:03.749Z,62.10
2023-04-15T12:48:09.633Z,61.90
2023-04-15T12:50:12.830Z,60.40
2023-04-15T12:52:16.666Z,61.80
2023-04-15T12:54:20.533Z,61.50
2023-04-15T12:56:24.321Z,62.30
2023-04-15T12:58:27.617Z,63.10
2023-04-15T13:00:34.697Z,63.10
2023-04-15T13:02:38.225Z,62.20
2023-04-15T13:04:41.665Z,60.00
2023-04-15T13:06:45.527Z,61.80
2023-04-15T13:08:57.926Z,59.80
2023-04-15T13:11:02.824Z,59.20
2023-04-15T13:13:07.208Z,60.60
2023-04-15T13:15:12.101Z,63.70
2023-04-15T13:17:19.066Z,61.30
2023-04-15T13:19:22.322Z,62.80
2023-04-15T13:21:26.052Z,62.30
2023-04-15T13:23:29.288Z,63.60
2023-04-15T13:25:32.532Z,63.90
2023-04-15T13:27:36.069Z,62.20
2023-04-15T13:29:40.347Z,61.30
2023-04-15T13:31:43.827Z,61.40
2023-04-15T13:33:48.645Z,62.60
2023-04-15T13:35:51.891Z,67.20
2023-04-15T13:37:56.437Z,69.90
2023-04-15T13:39:59.703Z,71.00
2023-04-15T13:42:03.737Z,66.40
2023-04-15T13:44:07.411Z,68.20
2023-04-15T13:46:11.498Z,68.50
2023-04-15T13:48:15.022Z,68.30
2023-04-15T13:50:19.745Z,65.30
2023-04-15T13:52:23.102Z,70.10
2023-04-15T13:54:37.695Z,69.50
2023-04-15T13:56:41.592Z,71.00
2023-04-15T13:58:45.084Z,70.20
2023-04-15T14:00:48.578Z,69.70
2023-04-15T14:02:51.933Z,67.90
2023-04-15T14:04:55.758Z,69.70
2023-04-15T14:07:01.911Z,70.00
2023-04-15T14:09:06.469Z,67.10
2023-04-15T14:11:10.684Z,67.20
2023-04-15T14:13:14.146Z,66.90
2023-04-15T14:15:17.854Z,66.60
2023-04-15T14:17:21.475Z,66.50
2023-04-15T14:19:25.346Z,66.50
2023-04-15T14:21:30.159Z,65.50
2023-04-15T14:23:35.046Z,68.40
2023-04-15T14:25:39.920Z,67.40
2023-04-15T14:27:43.375Z,69.70
2023-04-15T14:29:47.036Z,69.40
2023-04-15T14:32:04.461Z,66.90
2023-04-15T14:34:14.705Z,67.90
2023-04-15T14:36:18.222Z,68.40
2023-04-15T14:38:22.810Z,67.90
2023-04-15T14:40:27.783Z,68.30
2023-04-15T14:42:31.142Z,69.40
2023-04-15T14:44:34.870Z,69.40
2023-04-15T14:46:38.490Z,70.10
2023-04-15T14:48:42.212Z,68.60
2023-04-15T14:50:45.607Z,70.30
2023-04-15T14:52:49.129Z,69.70
2023-04-15T14:54:52.338Z,69.40
2023-04-15T14:56:57.344Z,68.10
2023-04-15T14:59:00.983Z,69.00
2023-04-15T15:01:05.697Z,68.00
2023-04-15T15:03:13.070Z,67.00
2023-04-15T15:05:16.783Z,66.70
2023-04-15T15:07:20.276Z,64.60
2023-04-15T15:09:24.081Z,64.10
2023-04-15T15:11:27.642Z,64.20
2023-04-15T15:13:32.800Z,64.40
2023-04-15T15:15:36.668Z,64.50
2023-04-15T15:17:40.144Z,63.80
2023-04-15T15:19:43.701Z,62.90
2023-04-15T15:21:47.236Z,62.50
2023-04-15T15:23:50.526Z,62.70
2023-04-15T15:25:53.875Z,63.70
2023-04-15T15:27:58.340Z,63.80
2023-04-15T15:30:03.069Z,64.10
2023-04-15T15:32:07.003Z,65.10
2023-04-15T15:34:10.463Z,67.40
2023-04-15T15:36:13.826Z,68.40
2023-04-15T15:38:17.218Z,69.80
2023-04-15T15:40:20.444Z,70.50
2023-04-15T15:42:24.434Z,70.90
2023-04-15T15:44:27.889Z,70.70
2023-04-15T15:46:33.150Z,71.40
2023-04-15T15:48:37.015Z,71.90
2023-04-15T15:50:40.403Z,71.00
2023-04-15T15:52:43.822Z,74.80
2023-04-15T15:54:47.379Z,77.50
2023-04-15T15:56:50.663Z,79.30
2023-04-15T15:58:53.929Z,80.90
2023-04-15T16:00:58.314Z,81.30
2023-04-15T16:03:07.903Z,82.80
2023-04-15T16:05:12.541Z,84.30
2023-04-15T16:07:15.997Z,85.40
2023-04-15T16:09:19.498Z,85.90
2023-04-15T16:11:22.779Z,86.20
2023-04-15T16:13:26.579Z,86.40
2023-04-15T16:15:30.038Z,86.30
2023-04-15T16:17:34.363Z,85.10
2023-04-15T16:19:39.597Z,83.80
2023-04-15T16:21:43.014Z,83.80
2023-04-15T16:23:46.783Z,85.60
2023-04-15T16:25:50.105Z,85.20
2023-04-15T16:28:01.290Z,84.30
2023-04-15T16:30:11.576Z,83.90
2023-04-15T16:32:18.098Z,83.50
2023-04-15T16:34:21.466Z,84.90
2023-04-15T16:36:26.621Z,85.60
2023-04-15T16:38:29.946Z,85.20
2023-04-15T16:40:33.263Z,84.60
2023-04-15T16:42:37.157Z,83.80
2023-04-15T16:44:40.658Z,83.00
2023-04-15T16:46:43.872Z,83.60
2023-04-15T16:48:47.211Z,83.90
2023-04-15T16:50:50.629Z,83.90
2023-04-15T16:52:56.424Z,83.60
2023-04-15T16:54:59.656Z,83.50
2023-04-15T16:57:03.572Z,83.20
2023-04-15T16:59:06.979Z,82.80
2023-04-15T17:01:10.315Z,82.40
2023-04-15T17:03:14.196Z,82.20
2023-04-15T17:05:17.807Z,81.50
2023-04-15T17:07:21.523Z,82.30
2023-04-15T17:09:26.499Z,82.80
2023-04-15T17:11:30.048Z,82.60
2023-04-15T17:13:33.728Z,82.50
2023-04-15T17:15:37.187Z,83.30
2023-04-15T17:17:40.638Z,82.80
2023-04-15T17:19:44.022Z,83.00
2023-04-15T17:21:48.103Z,83.20
2023-04-15T17:23:53.778Z,83.80
2023-04-15T17:25:58.715Z,83.60
2023-04-15T17:28:02.558Z,83.50
2023-04-15T17:30:06.961Z,83.20
2023-04-15T17:32:11.210Z,82.60
2023-04-15T17:34:16.044Z,82.40
2023-04-15T17:36:20.499Z,83.10
2023-04-15T17:38:24.218Z,83.50
2023-04-15T17:40:27.848Z,83.60
2023-04-15T17:42:32.581Z,84.00
2023-04-15T17:44:36.035Z,83.70
2023-04-15T17:46:39.517Z,84.00
2023-04-15T17:48:43.381Z,84.00
2023-04-15T17:50:47.024Z,84.30
2023-04-15T17:52:50.443Z,84.70
2023-04-15T17:54:53.864Z,84.90
2023-04-15T17:56:58.161Z,85.50
2023-04-15T17:59:03.641Z,85.00
2023-04-15T18:01:07.626Z,85.80
2023-04-15T18:03:10.953Z,85.70
2023-04-15T18:05:14.692Z,86.20
2023-04-15T18:07:18.088Z,86.50
2023-04-15T18:09:21.790Z,87.00
2023-04-15T18:11:25.638Z,87.10
2023-04-15T18:13:28.912Z,86.80
2023-04-15T18:15:34.036Z,86.20
2023-04-15T18:17:37.762Z,87.10
2023-04-15T18:19:41.766Z,88.50
2023-04-15T18:21:45.520Z,89.30
2023-04-15T18:23:49.017Z,88.90
2023-04-15T18:25:52.407Z,88.00
2023-04-15T18:27:56.845Z,88.40
2023-04-15T18:30:00.536Z,88.10
2023-04-15T18:32:05.612Z,88.40
2023-04-15T18:34:09.051Z,88.00
2023-04-15T18:36:12.625Z,88.40
2023-04-15T18:38:16.243Z,87.80
2023-04-15T18:40:19.642Z,87.80
2023-04-15T18:42:22.941Z,88.00
2023-04-15T18:44:26.660Z,87.60
2023-04-15T18:46:30.572Z,87.00
2023-04-15T18:48:35.271Z,87.20
2023-04-15T18:50:38.760Z,87.90
2023-04-15T18:52:42.250Z,87.80
2023-04-15T18:54:45.538Z,87.60
2023-04-15T18:56:48.937Z,87.70
2023-04-15T18:59:18.254Z,88.10
2023-04-15T19:01:15.785Z,88.10
2023-04-15T19:03:19.421Z,88.20
2023-04-15T19:05:24.463Z,88.10
2023-04-15T19:07:28.004Z,88.00
2023-04-15T19:09:31.272Z,87.90
2023-04-15T19:11:34.500Z,87.80
2023-04-15T19:13:37.775Z,87.90
2023-04-15T19:15:41.131Z,87.90
2023-04-15T19:17:44.759Z,87.90
2023-04-15T19:19:48.064Z,88.30
2023-04-15T19:21:53.811Z,89.00
2023-04-15T19:23:57.743Z,88.80
2023-04-15T19:26:01.007Z,88.50
2023-04-15T19:28:04.441Z,88.20
2023-04-15T19:30:09.113Z,87.90
2023-04-15T19:32:14.226Z,88.40
2023-04-15T19:34:17.783Z,88.60
2023-04-15T19:36:21.443Z,88.40
2023-04-15T19:38:26.257Z,88.20
2023-04-15T19:40:29.850Z,87.90
2023-04-15T19:42:33.350Z,87.90
2023-04-15T19:44:37.374Z,87.60
2023-04-15T19:46:40.939Z,87.90
2023-04-15T19:48:44.376Z,87.60
2023-04-15T19:50:47.671Z,87.10
2023-04-15T19:52:50.987Z,86.60
2023-04-15T19:54:55.763Z,87.00
2023-04-15T19:56:59.252Z,86.90
2023-04-15T19:59:02.728Z,87.00
2023-04-15T20:01:09.198Z,87.30
2023-04-15T20:03:13.755Z,87.30
2023-04-15T20:05:17.227Z,86.90
2023-04-15T20:07:20.534Z,86.30
2023-04-15T20:09:24.149Z,86.30
2023-04-15T20:12:47.849Z,86.20
2023-04-15T20:13:53.450Z,87.60
2023-04-15T20:15:57.053Z,88.10
2023-04-15T20:18:01.133Z,87.90
2023-04-15T20:20:05.665Z,88.20
2023-04-15T20:22:09.259Z,87.00
2023-04-15T20:24:12.653Z,86.60
2023-04-15T20:26:17.886Z,87.10
2023-04-15T20:28:23.518Z,87.40
2023-04-15T20:30:28.756Z,87.30
2023-04-15T20:32:35.672Z,86.90
2023-04-15T20:34:40.281Z,87.20
2023-04-15T20:36:43.467Z,87.80
2023-04-15T20:38:47.226Z,88.40
2023-04-15T20:40:51.449Z,88.80
2023-04-15T20:42:55.246Z,88.90
2023-04-15T20:44:59.871Z,89.00
2023-04-15T20:47:03.268Z,89.20
2023-04-15T20:49:07.005Z,89.70
2023-04-15T20:51:10.542Z,89.60
2023-04-15T20:53:13.948Z,89.40
2023-04-15T20:55:17.334Z,89.30
2023-04-15T20:57:21.254Z,89.50
2023-04-15T20:59:24.575Z,89.20
2023-04-15T21:01:29.377Z,89.60
2023-04-15T21:03:33.118Z,89.70
2023-04-15T21:05:36.770Z,89.50
2023-04-15T21:07:41.075Z,89.10
2023-04-15T21:09:44.686Z,89.60
2023-04-15T21:13:55.712Z,89.90
2023-04-15T21:15:59.162Z,89.50
2023-04-15T21:18:03.841Z,89.70
2023-04-15T21:20:08.502Z,89.20
2023-04-15T21:22:11.897Z,89.60
2023-04-15T21:24:15.490Z,89.10
2023-04-15T21:26:18.893Z,88.80
2023-04-15T21:28:22.407Z,89.40
2023-04-15T21:30:25.681Z,89.70
2023-04-15T21:32:30.538Z,89.50
2023-04-15T21:34:35.659Z,89.60
2023-04-15T21:36:40.130Z,89.70
2023-04-15T21:38:43.641Z,90.10
2023-04-15T21:40:47.030Z,90.30
2023-04-15T21:42:51.446Z,90.00
2023-04-15T21:44:54.965Z,90.10
2023-04-15T21:46:58.499Z,89.50
2023-04-15T21:49:02.035Z,89.50
2023-04-15T21:51:07.357Z,89.00
2023-04-15T21:53:11.184Z,89.20
2023-04-15T21:55:14.475Z,89.60
2023-04-15T21:57:18.676Z,89.60
2023-04-15T21:59:22.770Z,90.00
2023-04-15T22:01:26.487Z,89.50
2023-04-15T22:03:30.782Z,89.30
2023-04-15T22:05:34.218Z,89.40
2023-04-15T22:07:38.794Z,89.00
2023-04-15T22:09:42.002Z,89.00
2023-04-15T22:11:46.236Z,89.40
2023-04-15T22:13:49.593Z,90.00
2023-04-15T22:15:52.893Z,89.30
2023-04-15T22:17:56.347Z,90.00
2023-04-15T22:19:59.797Z,90.30
2023-04-15T22:22:03.075Z,90.60
2023-04-15T22:24:32.941Z,90.70
2023-04-15T22:26:31.163Z,90.40
2023-04-15T22:28:34.531Z,90.10
2023-04-15T22:30:39.951Z,90.20
2023-04-15T22:32:43.427Z,90.20
2023-04-15T22:34:46.771Z,89.90
2023-04-15T22:36:50.764Z,90.10
2023-04-15T22:38:54.213Z,90.10
2023-04-15T22:40:58.859Z,90.00
2023-04-15T22:43:02.104Z,89.50
2023-04-15T22:45:06.172Z,89.90
2023-04-15T22:47:09.341Z,90.00
2023-04-15T22:49:12.577Z,89.80
2023-04-15T22:51:22.816Z,89.70
2023-04-15T22:53:26.577Z,89.60
2023-04-15T22:55:29.766Z,89.80
2023-04-15T22:57:34.443Z,90.10
2023-04-15T22:59:37.639Z,89.80
2023-04-15T23:01:41.020Z,89.40
2023-04-15T23:03:55.816Z,89.40
2023-04-15T23:06:02.444Z,89.80
2023-04-15T23:08:05.933Z,90.10
2023-04-15T23:10:10.657Z,90.30
2023-04-15T23:12:15.074Z,90.50
2023-04-15T23:14:19.687Z,90.50
2023-04-15T23:16:23.057Z,90.50
2023-04-15T23:18:26.587Z,90.50
2023-04-15T23:20:29.818Z,90.60
2023-04-15T23:22:33.039Z,90.40
2023-04-15T23:24:36.260Z,90.20
2023-04-15T23:26:39.526Z,90.10
2023-04-15T23:28:43.126Z,90.20
2023-04-15T23:30:47.887Z,90.50
2023-04-15T23:32:51.168Z,90.50
2023-04-15T23:34:54.702Z,90.40
2023-04-15T23:36:58.051Z,90.30
2023-04-15T23:39:01.538Z,90.30
2023-04-15T23:41:04.933Z,89.70
2023-04-15T23:43:08.415Z,90.10
2023-04-15T23:45:12.724Z,90.20
2023-04-15T23:47:17.667Z,90.10
2023-04-15T23:49:20.935Z,90.20
2023-04-15T23:51:24.249Z,90.10
2023-04-15T23:53:27.528Z,89.90
2023-04-15T23:55:31.423Z,89.80
2023-04-15T23:57:35.022Z,89.40
2023-04-15T23:59:38.266Z,89.40
